Time;durP1;ratioP1;P1;durP2;ratioP2;P2;SDS_P1;SDS_P2;PMS_P1;PMS_P2;Temp;Humidity;BMP_temperature;BMP_pressure;BME280_temperature;BME280_humidity;BME280_pressure;Samples;Min_cycle;Max_cycle;Signal;HPM_P1;HPM_P2
2022/03/15 00:00:30;;;;;;;9.75;9.15;;;10.10;64.60;;;;;;5075949;28;20296;-58
2022/03/15 00:02:57;;;;;;;9.27;8.73;;;10.20;64.20;;;;;;5075754;28;20312;-58
2022/03/15 00:05:24;;;;;;;9.10;8.48;;;10.20;64.10;;;;;;5075770;28;20234;-58
2022/03/15 00:07:51;;;;;;;8.68;8.05;;;10.20;64.10;;;;;;5074481;28;20687;-57
2022/03/15 00:10:18;;;;;;;9.27;8.45;;;10.20;64.10;;;;;;5075797;28;20571;-57
2022/03/15 00:12:47;;;;;;;9.43;8.80;;;10.20;64.50;;;;;;5075583;28;20564;-58
2022/03/15 00:15:14;;;;;;;9.35;8.50;;;10.00;65.50;;;;;;5075766;28;20208;-58
2022/03/15 00:17:43;;;;;;;9.40;8.60;;;9.90;65.80;;;;;;5075457;28;20201;-58
2022/03/15 00:20:14;;;;;;;8.20;7.70;;;9.80;65.80;;;;;;5075642;28;20205;-57
2022/03/15 00:22:41;;;;;;;8.82;8.00;;;9.80;65.50;;;;;;5074129;28;20232;-58
2022/03/15 00:25:11;;;;;;;8.45;7.95;;;9.90;65.00;;;;;;5075389;28;20224;-58
2022/03/15 00:27:38;;;;;;;9.60;8.90;;;9.90;64.70;;;;;;5075167;28;20207;-58
2022/03/15 00:30:08;;;;;;;8.30;7.80;;;10.00;64.70;;;;;;5075427;28;20288;-58
2022/03/15 00:32:35;;;;;;;8.20;7.70;;;10.00;64.70;;;;;;5075242;28;20291;-58
2022/03/15 00:35:02;;;;;;;8.40;7.90;;;10.00;65.10;;;;;;5075352;28;20215;-57
2022/03/15 00:37:29;;;;;;;8.50;7.85;;;9.90;65.30;;;;;;5074062;28;20655;-58
2022/03/15 00:39:56;;;;;;;8.85;8.18;;;9.80;66.40;;;;;;5075166;28;20200;-58
2022/03/15 00:42:23;;;;;;;9.10;8.23;;;9.60;66.10;;;;;;5075172;28;20201;-57
2022/03/15 00:44:50;;;;;;;8.82;8.10;;;9.60;66.50;;;;;;5074940;28;20777;-58
2022/03/15 00:47:18;;;;;;;9.60;8.80;;;9.60;66.00;;;;;;5075188;28;20218;-58
2022/03/15 00:49:45;;;;;;;9.82;9.05;;;9.70;66.00;;;;;;5075234;28;20291;-57
2022/03/15 00:52:11;;;;;;;9.00;8.00;;;9.70;65.80;;;;;;5074219;28;20223;-58
2022/03/15 00:54:38;;;;;;;8.77;8.00;;;9.80;66.00;;;;;;5074830;28;20284;-57
2022/03/15 00:57:06;;;;;;;9.30;8.40;;;9.80;66.00;;;;;;5074786;28;20291;-58
2022/03/15 00:59:32;;;;;;;9.32;8.43;;;9.80;66.00;;;;;;5074822;28;20219;-57
2022/03/15 01:01:59;;;;;;;8.48;7.90;;;9.80;65.50;;;;;;5074718;28;20729;-57
2022/03/15 01:04:28;;;;;;;8.05;7.55;;;9.90;65.30;;;;;;5074838;28;20211;-58
2022/03/15 01:06:54;;;;;;;8.02;7.47;;;9.90;65.10;;;;;;5074604;28;20282;-58
2022/03/15 01:09:21;;;;;;;8.93;8.27;;;9.80;65.80;;;;;;5073470;28;20228;-58
2022/03/15 01:11:48;;;;;;;9.98;9.10;;;9.60;66.50;;;;;;5074383;28;20201;-58
2022/03/15 01:14:15;;;;;;;9.90;9.20;;;9.40;67.20;;;;;;5074566;28;20307;-58
2022/03/15 01:16:42;;;;;;;9.32;8.63;;;9.00;67.90;;;;;;5074455;28;20568;-58
2022/03/15 01:19:10;;;;;;;9.50;8.70;;;9.10;67.90;;;;;;5074482;28;20201;-57
2022/03/15 01:21:39;;;;;;;8.98;8.30;;;9.20;67.90;;;;;;5074306;28;20236;-57
2022/03/15 01:24:07;;;;;;;8.60;7.90;;;9.30;67.30;;;;;;5073145;28;20664;-57
2022/03/15 01:26:34;;;;;;;9.00;8.30;;;9.40;66.90;;;;;;5073930;28;20235;-57
2022/03/15 01:29:01;;;;;;;8.35;7.70;;;9.50;66.90;;;;;;5074259;28;20207;-57
2022/03/15 01:31:28;;;;;;;8.40;7.90;;;9.40;66.90;;;;;;5074175;28;20296;-57
2022/03/15 01:33:55;;;;;;;8.30;7.70;;;9.30;67.00;;;;;;5074228;28;20222;-57
2022/03/15 01:36:22;;;;;;;7.78;7.28;;;9.40;66.70;;;;;;5074177;28;20205;-57
2022/03/15 01:38:52;;;;;;;7.80;7.20;;;9.50;66.70;;;;;;5072942;28;20200;-57
2022/03/15 01:41:19;;;;;;;7.90;7.05;;;9.60;66.70;;;;;;5073700;28;20303;-57
2022/03/15 01:43:47;;;;;;;8.93;8.13;;;9.60;66.50;;;;;;5073664;28;20197;-57
2022/03/15 01:46:14;;;;;;;7.65;7.20;;;9.60;66.60;;;;;;5073914;28;20826;-57
2022/03/15 01:48:41;;;;;;;8.43;7.93;;;9.50;67.30;;;;;;5073953;28;20209;-57
2022/03/15 01:51:09;;;;;;;9.50;8.80;;;9.40;67.30;;;;;;5073824;28;20223;-57
2022/03/15 01:53:37;;;;;;;8.98;8.27;;;9.40;67.30;;;;;;5072563;28;20205;-57
2022/03/15 01:56:05;;;;;;;8.80;8.20;;;9.40;67.70;;;;;;5073719;28;20208;-57
2022/03/15 01:58:32;;;;;;;9.13;8.52;;;9.40;67.70;;;;;;5073734;28;20208;-57
2022/03/15 02:00:59;;;;;;;8.05;7.45;;;9.30;67.70;;;;;;5073649;28;20211;-57
2022/03/15 02:03:26;;;;;;;8.75;8.05;;;9.40;67.40;;;;;;5073548;28;20282;-57
2022/03/15 02:05:53;;;;;;;8.75;8.10;;;9.40;67.20;;;;;;5073521;28;20720;-57
2022/03/15 02:08:20;;;;;;;8.82;8.05;;;9.50;67.00;;;;;;5072275;28;20232;-57
2022/03/15 02:10:47;;;;;;;8.07;7.57;;;9.60;66.80;;;;;;5073584;28;20207;-57
2022/03/15 02:13:15;;;;;;;8.23;7.63;;;9.60;66.60;;;;;;5073455;28;20288;-57
2022/03/15 02:15:42;;;;;;;8.10;7.60;;;9.70;66.40;;;;;;5073324;28;20211;-57
2022/03/15 02:18:09;;;;;;;7.55;7.15;;;9.70;66.30;;;;;;5073432;28;20295;-57
2022/03/15 02:20:37;;;;;;;8.05;7.60;;;9.70;66.00;;;;;;5073332;28;20204;-57
2022/03/15 02:23:04;;;;;;;7.80;7.30;;;9.80;65.60;;;;;;5071873;28;20319;-57
2022/03/15 02:25:31;;;;;;;7.90;7.35;;;9.80;65.50;;;;;;5073143;28;20225;-57
2022/03/15 02:27:58;;;;;;;7.78;7.28;;;9.80;65.30;;;;;;5073212;28;20211;-57
2022/03/15 02:30:25;;;;;;;7.72;7.10;;;9.80;65.20;;;;;;5073247;28;20629;-57
2022/03/15 02:32:52;;;;;;;7.57;7.15;;;9.90;65.10;;;;;;5073088;28;20232;-57
2022/03/15 02:35:20;;;;;;;7.45;7.05;;;9.90;65.30;;;;;;5072979;28;20208;-57
2022/03/15 02:37:48;;;;;;;8.45;7.85;;;10.00;65.10;;;;;;5071938;28;20353;-57
2022/03/15 02:40:15;;;;;;;9.00;8.30;;;9.90;64.90;;;;;;5073063;28;20209;-57
2022/03/15 02:42:43;;;;;;;8.98;8.30;;;9.90;65.40;;;;;;5072942;28;20215;-57
2022/03/15 02:45:11;;;;;;;9.50;8.80;;;9.70;65.80;;;;;;5072973;28;20232;-57
2022/03/15 02:47:38;;;;;;;9.45;8.65;;;9.60;65.90;;;;;;5072960;28;20554;-57
2022/03/15 02:50:06;;;;;;;9.60;8.60;;;9.60;66.00;;;;;;5072773;28;20219;-57
2022/03/15 02:52:33;;;;;;;10.30;9.30;;;9.60;66.30;;;;;;5071471;28;20197;-57
2022/03/15 02:55:05;;;;;;;10.00;9.20;;;9.50;66.80;;;;;;5072612;28;20197;-57
2022/03/15 02:57:32;;;;;;;10.45;9.65;;;9.50;66.60;;;;;;5072216;28;20209;-57
2022/03/15 02:59:59;;;;;;;10.02;9.23;;;9.60;66.80;;;;;;5072885;28;20205;-57
2022/03/15 03:02:26;;;;;;;9.80;8.90;;;9.60;66.70;;;;;;5072681;28;20252;-57
2022/03/15 03:04:53;;;;;;;10.48;9.57;;;9.70;66.30;;;;;;5072842;28;20285;-57
2022/03/15 03:07:20;;;;;;;9.38;8.57;;;9.70;66.00;;;;;;5071436;28;20672;-57
2022/03/15 03:09:47;;;;;;;8.75;8.05;;;9.70;66.00;;;;;;5072781;28;20572;-57
2022/03/15 03:12:15;;;;;;;9.52;8.60;;;9.70;66.00;;;;;;5072668;28;20550;-57
2022/03/15 03:14:45;;;;;;;8.70;8.07;;;9.80;65.90;;;;;;5072643;28;20292;-57
2022/03/15 03:17:12;;;;;;;10.10;9.27;;;9.90;65.60;;;;;;5072522;28;20204;-57
2022/03/15 03:19:40;;;;;;;8.70;8.20;;;9.90;65.50;;;;;;5072602;28;20208;-57
2022/03/15 03:22:07;;;;;;;9.75;8.95;;;10.00;65.30;;;;;;5072515;28;20310;-58
2022/03/15 03:24:34;;;;;;;9.10;8.40;;;10.00;65.10;;;;;;5071720;28;20196;-57
2022/03/15 03:27:01;;;;;;;10.30;9.35;;;9.90;65.00;;;;;;5072425;28;20239;-57
2022/03/15 03:29:31;;;;;;;9.45;8.68;;;9.70;65.40;;;;;;5072497;28;20204;-57
2022/03/15 03:31:58;;;;;;;9.63;9.02;;;9.70;65.80;;;;;;5072470;28;20698;-57
2022/03/15 03:34:26;;;;;;;9.10;8.48;;;9.70;65.80;;;;;;5072561;28;20693;-57
2022/03/15 03:36:53;;;;;;;9.35;8.73;;;9.70;66.40;;;;;;5072454;28;20652;-57
2022/03/15 03:39:20;;;;;;;9.02;8.43;;;9.70;66.40;;;;;;5071265;28;20201;-57
2022/03/15 03:41:47;;;;;;;9.50;8.65;;;9.60;66.50;;;;;;5072373;28;20204;-57
2022/03/15 03:44:14;;;;;;;9.30;8.70;;;9.60;66.40;;;;;;5072278;28;20303;-58
2022/03/15 03:46:42;;;;;;;9.00;8.40;;;9.70;66.00;;;;;;5072229;28;20236;-57
2022/03/15 03:49:09;;;;;;;8.98;8.40;;;9.80;66.00;;;;;;5072253;28;20201;-57
2022/03/15 03:51:36;;;;;;;8.68;8.07;;;9.90;65.90;;;;;;5072326;28;20243;-57
2022/03/15 03:54:03;;;;;;;9.40;8.70;;;9.90;65.50;;;;;;5071033;28;20224;-57
2022/03/15 03:56:33;;;;;;;9.50;8.50;;;10.00;64.90;;;;;;5072103;28;20197;-57
2022/03/15 03:59:01;;;;;;;9.50;8.70;;;9.90;65.60;;;;;;5072079;28;20201;-57
2022/03/15 04:01:27;;;;;;;8.38;7.63;;;9.80;65.40;;;;;;5072053;28;20318;-57
2022/03/15 04:03:59;;;;;;;9.45;8.85;;;9.70;65.40;;;;;;5072346;28;20236;-57
2022/03/15 04:06:26;;;;;;;9.52;8.77;;;9.60;65.70;;;;;;5072205;28;20236;-57
2022/03/15 04:08:56;;;;;;;9.93;9.32;;;9.60;65.80;;;;;;5074088;28;20291;-57
2022/03/15 04:11:23;;;;;;;6.60;6.10;;;9.60;65.80;;;;;;5075610;28;20682;-57
2022/03/15 04:13:49;;;;;;;6.35;5.75;;;9.80;65.40;;;;;;5075435;28;20702;-57
2022/03/15 04:16:16;;;;;;;7.65;7.03;;;9.80;65.30;;;;;;5075724;28;20209;-57
2022/03/15 04:18:43;;;;;;;9.85;9.15;;;9.90;65.10;;;;;;5075508;28;20675;-58
2022/03/15 04:21:12;;;;;;;9.25;8.65;;;10.00;64.90;;;;;;5075461;28;20200;-57
2022/03/15 04:23:38;;;;;;;8.85;8.25;;;10.00;64.70;;;;;;5074248;28;20262;-57
2022/03/15 04:26:06;;;;;;;6.50;6.00;;;9.90;63.90;;;;;;5075337;28;20201;-57
2022/03/15 04:28:33;;;;;;;7.10;6.57;;;9.70;64.00;;;;;;5075344;28;20291;-57
2022/03/15 04:31:00;;;;;;;8.52;7.93;;;9.80;64.30;;;;;;5075434;28;20247;-57
2022/03/15 04:33:26;;;;;;;8.65;8.15;;;9.80;64.50;;;;;;5075407;28;20284;-57
2022/03/15 04:35:53;;;;;;;7.47;6.88;;;9.90;64.50;;;;;;5075221;28;20633;-57
2022/03/15 04:38:21;;;;;;;8.70;8.15;;;9.90;64.40;;;;;;5073852;28;20200;-57
2022/03/15 04:40:49;;;;;;;8.18;7.57;;;9.90;64.40;;;;;;5075171;28;20292;-57
2022/03/15 04:43:16;;;;;;;7.35;6.82;;;9.90;64.40;;;;;;5075157;28;20222;-57
2022/03/15 04:45:42;;;;;;;8.75;8.10;;;9.90;64.50;;;;;;5075135;28;20228;-57
2022/03/15 04:48:09;;;;;;;8.95;8.45;;;9.80;64.00;;;;;;5075021;28;20236;-57
2022/03/15 04:50:38;;;;;;;8.52;7.93;;;9.70;64.00;;;;;;5075137;28;20201;-57
2022/03/15 04:53:05;;;;;;;9.23;8.45;;;9.70;63.80;;;;;;5073614;28;20651;-57
2022/03/15 04:55:33;;;;;;;9.05;8.35;;;9.60;63.90;;;;;;5075115;28;20197;-57
2022/03/15 04:58:00;;;;;;;8.60;7.70;;;9.50;64.20;;;;;;5074905;28;20226;-58
2022/03/15 05:00:26;;;;;;;9.25;8.55;;;9.40;64.50;;;;;;5074879;28;20225;-57
2022/03/15 05:02:54;;;;;;;9.15;8.35;;;9.40;64.80;;;;;;5074905;28;20287;-57
2022/03/15 05:05:21;;;;;;;9.32;8.65;;;9.40;64.80;;;;;;5074872;28;20200;-57
2022/03/15 05:07:48;;;;;;;8.77;8.07;;;9.40;64.90;;;;;;5073242;28;20640;-57
2022/03/15 05:13:00;;;;;;;8.82;8.13;;;9.20;65.70;;;;;;5074619;28;20199;-57
2022/03/15 05:15:27;;;;;;;10.18;9.48;;;9.20;65.70;;;;;;5074658;28;20205;-57
2022/03/15 05:17:54;;;;;;;8.45;7.57;;;9.20;65.90;;;;;;5074543;28;20205;-57
2022/03/15 05:20:21;;;;;;;9.07;8.25;;;9.10;66.20;;;;;;5073567;28;20205;-58
2022/03/15 05:22:48;;;;;;;9.15;8.38;;;9.00;66.70;;;;;;5073264;28;20267;-57
2022/03/15 05:25:16;;;;;;;10.90;10.00;;;8.90;67.10;;;;;;5074538;28;20291;-58
2022/03/15 05:27:43;;;;;;;9.20;8.50;;;8.80;67.80;;;;;;5074205;28;20233;-58
2022/03/15 05:30:13;;;;;;;8.68;7.90;;;8.60;68.40;;;;;;5074228;28;20729;-57
2022/03/15 05:32:40;;;;;;;10.95;10.15;;;8.50;68.90;;;;;;5074119;28;20379;-57
2022/03/15 05:35:07;;;;;;;10.68;9.73;;;8.40;69.30;;;;;;5074145;28;20629;-57
2022/03/15 05:37:34;;;;;;;9.88;8.95;;;8.30;69.40;;;;;;5072884;28;20245;-58
2022/03/15 05:40:01;;;;;;;10.65;9.70;;;8.30;69.50;;;;;;5074070;28;20229;-57
2022/03/15 05:42:28;;;;;;;9.52;8.73;;;8.20;69.70;;;;;;5074034;28;20205;-58
2022/03/15 05:44:55;;;;;;;11.20;9.80;;;8.20;69.80;;;;;;5074044;28;20213;-57
2022/03/15 05:47:23;;;;;;;10.40;9.43;;;8.10;70.00;;;;;;5073911;28;20268;-58
2022/03/15 05:49:50;;;;;;;10.80;10.00;;;8.10;70.20;;;;;;5073950;28;20284;-57
2022/03/15 05:52:17;;;;;;;8.90;7.80;;;8.00;70.40;;;;;;5072558;28;20295;-57
2022/03/15 05:54:44;;;;;;;10.60;9.60;;;8.00;70.50;;;;;;5073872;28;20201;-57
2022/03/15 05:57:11;;;;;;;10.13;9.30;;;7.90;70.70;;;;;;5073682;28;20243;-57
2022/03/15 05:59:38;;;;;;;10.65;9.85;;;7.90;71.00;;;;;;5073659;28;20203;-57
2022/03/15 06:02:05;;;;;;;8.32;7.65;;;7.80;71.10;;;;;;5073575;28;20615;-57
2022/03/15 06:04:34;;;;;;;10.57;9.57;;;7.80;71.20;;;;;;5073537;28;20677;-58
2022/03/15 06:07:01;;;;;;;9.18;8.30;;;7.80;71.00;;;;;;5073413;28;20225;-57
2022/03/15 06:09:29;;;;;;;9.68;8.63;;;7.80;71.00;;;;;;5072404;28;21000;-58
2022/03/15 06:11:55;;;;;;;10.73;9.65;;;7.80;71.00;;;;;;5073342;28;20201;-58
2022/03/15 06:14:23;;;;;;;12.25;9.10;;;7.80;70.90;;;;;;5073234;28;20224;-57
2022/03/15 06:16:50;;;;;;;10.80;9.80;;;7.80;70.80;;;;;;5073346;28;20299;-57
2022/03/15 06:19:17;;;;;;;12.18;11.05;;;7.80;70.90;;;;;;5073289;28;20205;-57
2022/03/15 06:21:46;;;;;;;10.48;9.57;;;7.80;70.90;;;;;;5073180;28;20228;-57
2022/03/15 06:24:13;;;;;;;11.55;9.07;;;7.90;70.60;;;;;;5071927;28;20298;-57
2022/03/15 06:26:41;;;;;;;10.25;9.40;;;8.00;70.80;;;;;;5073141;28;20211;-57
2022/03/15 06:29:08;;;;;;;10.02;9.10;;;8.00;70.50;;;;;;5072880;28;20266;-57
2022/03/15 06:31:35;;;;;;;10.85;9.75;;;8.10;70.20;;;;;;5073210;28;20210;-57
2022/03/15 06:34:04;;;;;;;11.02;10.07;;;8.00;70.70;;;;;;5073134;28;20602;-57
2022/03/15 06:36:31;;;;;;;9.82;7.82;;;7.90;71.10;;;;;;5073093;28;20201;-58
2022/03/15 06:39:00;;;;;;;9.77;8.88;;;7.90;71.30;;;;;;5071699;28;20219;-58
2022/03/15 06:41:27;;;;;;;10.50;9.70;;;7.90;71.30;;;;;;5072914;28;20261;-58
2022/03/15 06:43:54;;;;;;;11.55;9.75;;;7.90;71.30;;;;;;5072799;28;20200;-57
2022/03/15 06:46:21;;;;;;;11.98;10.80;;;7.90;71.60;;;;;;5073022;28;20259;-57
2022/03/15 06:48:48;;;;;;;12.38;8.32;;;7.90;71.50;;;;;;5072884;28;20229;-57
2022/03/15 06:51:15;;;;;;;9.50;8.32;;;7.90;71.60;;;;;;5072793;28;20295;-58
2022/03/15 06:53:42;;;;;;;12.00;10.77;;;7.90;71.60;;;;;;5071483;28;20571;-57
2022/03/15 06:56:10;;;;;;;10.93;10.13;;;8.00;71.20;;;;;;5072775;28;20243;-58
2022/03/15 06:58:37;;;;;;;10.32;9.25;;;8.00;71.40;;;;;;5072634;28;20629;-58
2022/03/15 07:01:04;;;;;;;11.43;10.45;;;8.00;71.70;;;;;;5072776;28;20646;-58
2022/03/15 07:03:31;;;;;;;11.10;10.10;;;8.00;71.60;;;;;;5072577;28;20667;-57
2022/03/15 07:05:58;;;;;;;11.10;10.00;;;8.00;71.40;;;;;;5072820;28;20255;-58
2022/03/15 07:08:24;;;;;;;9.82;8.93;;;8.10;71.50;;;;;;5071258;28;20224;-57
2022/03/15 07:10:53;;;;;;;10.13;9.32;;;8.00;71.80;;;;;;5072537;28;20205;-57
2022/03/15 07:13:21;;;;;;;10.90;9.80;;;7.90;72.30;;;;;;5072604;28;20283;-58
2022/03/15 07:15:48;;;;;;;11.43;10.32;;;7.90;72.20;;;;;;5072634;28;20243;-58
2022/03/15 07:18:16;;;;;;;11.13;10.10;;;7.70;72.80;;;;;;5072481;28;20236;-58
2022/03/15 07:20:43;;;;;;;11.00;9.85;;;7.70;72.70;;;;;;5072583;28;20653;-57
2022/03/15 07:23:10;;;;;;;10.45;9.50;;;7.70;72.80;;;;;;5071193;28;20258;-57
2022/03/15 07:25:36;;;;;;;11.32;10.27;;;7.60;73.40;;;;;;5072599;28;20671;-58
2022/03/15 07:28:04;;;;;;;10.38;9.48;;;7.50;73.40;;;;;;5072302;28;20268;-58
2022/03/15 07:30:32;;;;;;;10.70;9.70;;;7.50;73.50;;;;;;5072568;28;20204;-58
2022/03/15 07:32:59;;;;;;;10.52;9.65;;;7.50;73.70;;;;;;5072473;28;20295;-58
2022/03/15 07:35:27;;;;;;;9.90;9.20;;;7.40;73.80;;;;;;5072481;28;20208;-58
2022/03/15 07:37:56;;;;;;;10.38;9.38;;;7.40;74.00;;;;;;5070904;28;20608;-58
2022/03/15 07:40:24;;;;;;;9.45;8.45;;;7.40;74.20;;;;;;5072348;28;20205;-58
2022/03/15 07:42:52;;;;;;;9.15;8.35;;;7.50;73.90;;;;;;5074077;28;20613;-58
2022/03/15 07:45:19;;;;;;;10.13;8.65;;;7.50;73.80;;;;;;5076407;28;20228;-58
2022/03/15 07:47:48;;;;;;;10.07;9.23;;;7.60;73.60;;;;;;5076097;28;20327;-58
2022/03/15 07:50:15;;;;;;;10.60;8.18;;;7.70;73.20;;;;;;5076090;28;20209;-58
2022/03/15 07:52:42;;;;;;;10.65;9.75;;;7.80;72.90;;;;;;5074902;28;20208;-58
2022/03/15 07:55:09;;;;;;;10.10;9.40;;;7.90;72.80;;;;;;5076211;28;20235;-58
2022/03/15 07:57:36;;;;;;;10.05;9.35;;;8.00;72.50;;;;;;5075906;28;20208;-58
2022/03/15 08:00:04;;;;;;;10.30;9.50;;;8.00;72.70;;;;;;5076062;28;20228;-58
2022/03/15 08:02:31;;;;;;;11.38;9.05;;;8.10;72.40;;;;;;5075868;28;20633;-58
2022/03/15 08:04:59;;;;;;;9.13;8.32;;;8.10;72.00;;;;;;5075718;28;20648;-58
2022/03/15 08:07:26;;;;;;;9.25;8.55;;;8.10;72.20;;;;;;5074550;28;20327;-58
2022/03/15 08:09:54;;;;;;;10.60;9.50;;;8.10;72.20;;;;;;5075800;28;20707;-58
2022/03/15 08:12:21;;;;;;;9.15;7.82;;;8.10;71.90;;;;;;5075797;28;20293;-58
2022/03/15 08:14:48;;;;;;;10.82;9.93;;;8.10;71.80;;;;;;5075792;28;20676;-58
2022/03/15 08:17:15;;;;;;;9.43;8.60;;;8.10;71.30;;;;;;5075626;28;20204;-58
2022/03/15 08:19:42;;;;;;;10.00;9.10;;;8.20;71.40;;;;;;5075502;28;20655;-57
2022/03/15 08:22:10;;;;;;;11.95;10.73;;;8.30;71.20;;;;;;5075480;28;20247;-58
2022/03/15 08:24:37;;;;;;;10.38;9.57;;;8.40;70.30;;;;;;5074695;28;20201;-58
2022/03/15 08:27:04;;;;;;;10.70;9.80;;;8.40;70.40;;;;;;5075428;28;20239;-58
2022/03/15 08:29:31;;;;;;;9.55;8.75;;;8.50;70.20;;;;;;5075510;28;20205;-58
2022/03/15 08:31:59;;;;;;;10.90;9.93;;;8.60;70.00;;;;;;5075463;28;20605;-58
2022/03/15 08:34:25;;;;;;;10.50;9.60;;;8.70;69.60;;;;;;5075268;28;20296;-58
2022/03/15 08:36:53;;;;;;;10.35;9.40;;;8.70;69.40;;;;;;5075229;28;20204;-58
2022/03/15 08:39:23;;;;;;;9.77;9.20;;;8.80;69.50;;;;;;5074120;28;20534;-58
2022/03/15 08:41:51;;;;;;;9.98;9.20;;;8.90;69.60;;;;;;5075255;28;20197;-58
2022/03/15 08:44:18;;;;;;;9.95;9.27;;;9.00;70.30;;;;;;5075013;28;20219;-58
2022/03/15 08:46:47;;;;;;;8.43;7.82;;;9.20;69.00;;;;;;5075043;28;20208;-58
2022/03/15 08:49:14;;;;;;;7.80;7.15;;;9.20;68.70;;;;;;5075032;28;20319;-58
2022/03/15 08:51:41;;;;;;;9.48;8.68;;;9.20;68.70;;;;;;5075162;28;20266;-58
2022/03/15 08:54:08;;;;;;;10.20;9.40;;;9.20;68.60;;;;;;5073741;28;20205;-58
2022/03/15 08:56:40;;;;;;;7.93;7.32;;;9.20;68.90;;;;;;5074981;28;20657;-58
2022/03/15 08:59:06;;;;;;;9.15;8.48;;;9.30;69.10;;;;;;5059709;28;20232;-58
2022/03/15 09:01:33;;;;;;;9.65;8.80;;;9.30;69.30;;;;;;5054695;28;20229;-57
2022/03/15 09:04:01;;;;;;;9.80;9.10;;;9.10;70.00;;;;;;5054263;28;20304;-57
2022/03/15 09:06:28;;;;;;;8.73;8.18;;;9.00;70.80;;;;;;5054151;28;20210;-57
2022/03/15 09:08:55;;;;;;;9.50;8.70;;;9.00;71.40;;;;;;5052581;28;20599;-57
2022/03/15 09:11:22;;;;;;;9.25;8.55;;;9.10;71.60;;;;;;5053897;28;20229;-57
2022/03/15 09:13:50;;;;;;;8.43;7.93;;;9.20;72.00;;;;;;5053793;28;20197;-57
2022/03/15 09:16:17;;;;;;;9.60;8.90;;;9.30;72.70;;;;;;5054941;28;20236;-57
2022/03/15 09:18:44;;;;;;;7.07;6.57;;;9.20;73.70;;;;;;5057362;28;20298;-56
2022/03/15 09:21:12;;;;;;;9.70;9.10;;;9.10;75.00;;;;;;5053774;28;20221;-56
2022/03/15 09:23:39;;;;;;;10.30;9.52;;;8.80;76.40;;;;;;5055241;28;20600;-57
2022/03/15 09:26:06;;;;;;;10.10;9.40;;;8.80;77.90;;;;;;5069590;28;20579;-56
2022/03/15 09:28:34;;;;;;;9.63;8.93;;;8.80;79.60;;;;;;5053955;28;20244;-56
2022/03/15 09:31:02;;;;;;;10.68;9.77;;;8.90;79.40;;;;;;5053821;28;20219;-57
2022/03/15 09:33:29;;;;;;;9.77;9.18;;;8.90;79.70;;;;;;5053603;28;20304;-56
2022/03/15 09:35:56;;;;;;;10.15;9.55;;;8.90;80.40;;;;;;5053451;28;20225;-55
2022/03/15 09:38:24;;;;;;;10.65;9.95;;;8.80;81.20;;;;;;5052242;28;20205;-57
2022/03/15 09:40:53;;;;;;;10.98;9.73;;;8.70;81.60;;;;;;5053980;28;20328;-57
2022/03/15 09:43:22;;;;;;;9.60;8.90;;;8.70;81.60;;;;;;5053965;28;20209;-58
2022/03/15 09:45:50;;;;;;;9.95;9.15;;;8.90;81.90;;;;;;5054026;28;20205;-58
2022/03/15 09:48:24;;;;;;;10.40;9.60;;;9.00;82.10;;;;;;5066665;28;20228;-58
2022/03/15 09:50:52;;;;;;;10.13;9.20;;;9.00;82.00;;;;;;5074066;28;20205;-57
2022/03/15 09:53:20;;;;;;;9.95;9.15;;;9.10;81.60;;;;;;5072700;28;20201;-58
2022/03/15 09:55:48;;;;;;;8.60;7.90;;;9.00;82.20;;;;;;5073851;28;20201;-58
2022/03/15 09:58:18;;;;;;;8.18;7.38;;;9.00;82.00;;;;;;5073865;28;20258;-58
2022/03/15 10:00:45;;;;;;;8.55;7.75;;;8.90;82.00;;;;;;5073740;28;20211;-58
2022/03/15 10:03:14;;;;;;;8.18;7.57;;;8.80;82.70;;;;;;5074025;28;20207;-57
2022/03/15 10:05:44;;;;;;;8.50;6.80;;;8.90;82.40;;;;;;5073181;28;20205;-57
2022/03/15 10:08:12;;;;;;;8.02;7.22;;;8.90;82.00;;;;;;5071884;28;20617;-57
2022/03/15 10:10:39;;;;;;;6.82;6.32;;;9.10;81.60;;;;;;5073481;28;20295;-57
2022/03/15 10:13:05;;;;;;;7.32;6.63;;;9.30;81.20;;;;;;5073231;28;20224;-57
2022/03/15 10:15:32;;;;;;;6.93;6.32;;;9.40;80.60;;;;;;5073252;28;20211;-57
2022/03/15 10:18:04;;;;;;;7.82;7.25;;;9.70;79.80;;;;;;5073330;28;20292;-57
2022/03/15 10:20:39;;;;;;;7.15;6.50;;;9.90;78.30;;;;;;5073204;28;20254;-57
2022/03/15 10:23:09;;;;;;;7.22;6.72;;;10.00;78.00;;;;;;5071893;28;20236;-59
2022/03/15 10:25:36;;;;;;;7.30;6.60;;;10.20;77.70;;;;;;5073277;28;20200;-58
2022/03/15 10:28:06;;;;;;;7.07;6.53;;;10.40;77.70;;;;;;5073043;28;20703;-57
2022/03/15 10:30:34;;;;;;;6.70;6.10;;;10.40;78.80;;;;;;5073244;28;20296;-59
2022/03/15 10:33:01;;;;;;;6.25;5.80;;;10.60;77.70;;;;;;5073172;28;20211;-59
2022/03/15 10:35:31;;;;;;;6.60;6.10;;;10.70;77.30;;;;;;5073031;28;20244;-59
2022/03/15 10:37:59;;;;;;;5.57;5.18;;;10.70;76.80;;;;;;5071800;28;20673;-58
2022/03/15 10:40:34;;;;;;;6.40;5.90;;;10.80;76.20;;;;;;5073043;28;20221;-59
2022/03/15 10:43:10;;;;;;;7.55;6.85;;;10.90;76.30;;;;;;5072900;28;20728;-60
2022/03/15 10:45:41;;;;;;;7.28;6.78;;;10.90;76.20;;;;;;5072814;28;20618;-59
2022/03/15 10:48:16;;;;;;;6.70;6.18;;;10.80;76.10;;;;;;5072859;28;20248;-59
2022/03/15 10:50:57;;;;;;;6.70;6.20;;;10.90;76.30;;;;;;5072876;28;20215;-60
2022/03/15 10:53:25;;;;;;;6.78;6.15;;;11.00;76.90;;;;;;5071512;28;20280;-58
2022/03/15 10:56:09;;;;;;;6.28;5.88;;;11.10;76.70;;;;;;5072704;28;20197;-62
2022/03/15 10:58:36;;;;;;;6.25;5.85;;;11.20;77.20;;;;;;5072844;28;20303;-58
2022/03/15 11:01:09;;;;;;;7.35;6.75;;;11.40;76.90;;;;;;5073004;28;20299;-59
2022/03/15 11:03:36;;;;;;;7.20;6.50;;;11.40;77.70;;;;;;5072871;28;20212;-58
2022/03/15 11:06:08;;;;;;;6.70;6.10;;;11.50;76.90;;;;;;5072873;28;21005;-59
2022/03/15 11:08:36;;;;;;;7.45;6.78;;;11.60;76.30;;;;;;5071359;28;20259;-59
2022/03/15 11:11:06;;;;;;;7.35;6.72;;;11.70;76.20;;;;;;5072803;28;20232;-59
2022/03/15 11:13:33;;;;;;;7.18;6.57;;;11.60;76.90;;;;;;5072670;28;20210;-58
2022/03/15 11:16:00;;;;;;;6.93;6.32;;;11.70;76.40;;;;;;5072773;28;20638;-58
2022/03/15 11:18:30;;;;;;;7.28;6.68;;;11.70;76.60;;;;;;5075579;28;20212;-59
2022/03/15 11:20:59;;;;;;;7.18;6.47;;;11.60;76.00;;;;;;5076865;28;20204;-59
2022/03/15 11:23:26;;;;;;;7.63;6.82;;;11.40;76.90;;;;;;5075192;28;20232;-59
2022/03/15 11:25:57;;;;;;;7.57;6.63;;;11.40;76.40;;;;;;5076825;28;20232;-58
2022/03/15 11:28:28;;;;;;;7.35;6.75;;;11.30;76.70;;;;;;5076391;28;20228;-58
2022/03/15 11:30:56;;;;;;;7.30;6.45;;;11.30;77.40;;;;;;5076672;28;20216;-58
2022/03/15 11:33:25;;;;;;;7.10;6.30;;;11.20;77.00;;;;;;5056605;28;20205;-58
2022/03/15 11:35:53;;;;;;;7.88;6.55;;;11.10;78.50;;;;;;5056477;28;20201;-57
2022/03/15 11:38:21;;;;;;;9.32;7.22;;;11.00;78.50;;;;;;5060420;28;20659;-58
2022/03/15 11:40:51;;;;;;;8.10;7.30;;;11.00;78.60;;;;;;5076368;28;20288;-58
2022/03/15 11:43:26;;;;;;;7.80;6.60;;;10.90;78.20;;;;;;5076131;28;20204;-58
2022/03/15 11:46:01;;;;;;;7.90;7.20;;;10.80;79.40;;;;;;5076449;28;20239;-58
2022/03/15 11:48:41;;;;;;;8.30;7.50;;;10.70;81.00;;;;;;5061978;28;20251;-58
2022/03/15 11:51:14;;;;;;;8.93;7.35;;;10.60;79.90;;;;;;5056257;28;20216;-58
2022/03/15 11:53:48;;;;;;;10.38;9.15;;;10.50;81.20;;;;;;5054999;28;20202;-58
2022/03/15 11:56:25;;;;;;;11.10;10.00;;;10.40;81.40;;;;;;5056106;28;20201;-58
2022/03/15 11:58:54;;;;;;;11.75;8.60;;;10.30;80.80;;;;;;5055865;28;20682;-58
2022/03/15 12:01:23;;;;;;;12.63;10.30;;;10.20;82.20;;;;;;5056034;28;20205;-57
2022/03/15 12:03:53;;;;;;;13.02;10.35;;;10.20;81.50;;;;;;5056341;28;20204;-58
2022/03/15 12:06:25;;;;;;;9.68;8.75;;;10.20;81.70;;;;;;5055998;28;20296;-58
2022/03/15 12:08:57;;;;;;;12.13;9.43;;;10.20;81.80;;;;;;5054582;28;20225;-58
2022/03/15 12:11:32;;;;;;;11.95;9.98;;;10.10;81.60;;;;;;5055802;28;20296;-57
2022/03/15 12:14:07;;;;;;;11.52;8.52;;;10.10;81.70;;;;;;5055788;28;20543;-58
2022/03/15 12:16:38;;;;;;;12.73;8.98;;;10.10;81.90;;;;;;5055937;28;20204;-57
2022/03/15 12:19:21;;;;;;;10.70;8.55;;;10.10;81.80;;;;;;5055739;28;20565;-58
2022/03/15 12:21:52;;;;;;;14.57;10.30;;;10.10;82.10;;;;;;5055433;28;20788;-58
2022/03/15 12:24:20;;;;;;;11.50;10.30;;;10.00;81.80;;;;;;5054616;28;20739;-58
2022/03/15 12:26:59;;;;;;;12.00;10.63;;;9.90;82.10;;;;;;5055723;28;20206;-57
2022/03/15 12:29:27;;;;;;;10.20;9.20;;;9.80;82.10;;;;;;5054940;28;20232;-57
2022/03/15 12:31:57;;;;;;;11.45;9.43;;;9.80;82.00;;;;;;5055483;28;20300;-58
2022/03/15 12:34:26;;;;;;;15.27;10.18;;;9.70;82.90;;;;;;5055458;28;20212;-57
2022/03/15 12:36:58;;;;;;;11.70;10.50;;;9.50;83.40;;;;;;5055362;28;20202;-58
2022/03/15 12:39:27;;;;;;;13.43;9.90;;;9.50;83.30;;;;;;5054109;28;20228;-58
2022/03/15 12:42:06;;;;;;;13.23;9.98;;;9.60;82.80;;;;;;5055242;28;20215;-58
2022/03/15 12:44:45;;;;;;;14.88;10.63;;;9.60;83.00;;;;;;5054891;28;20209;-58
2022/03/15 12:47:16;;;;;;;18.48;10.55;;;9.50;83.40;;;;;;5055232;28;20212;-58
2022/03/15 12:49:43;;;;;;;11.02;9.65;;;9.50;83.10;;;;;;5055131;28;20229;-58
2022/03/15 12:52:12;;;;;;;13.85;10.32;;;9.60;82.70;;;;;;5055087;28;20205;-58
2022/03/15 12:54:39;;;;;;;12.85;10.38;;;9.50;83.20;;;;;;5054154;28;20226;-58
2022/03/15 12:57:12;;;;;;;12.13;10.00;;;9.50;84.10;;;;;;5054937;28;20779;-58